createdAt,value
2023-03-27T00:00:16.422Z,100408.41
2023-03-27T00:02:47.050Z,100406.47
2023-03-27T00:05:16.318Z,100405.06
2023-03-27T00:07:45.584Z,100413.47
2023-03-27T00:10:13.564Z,100405.19
2023-03-27T00:12:41.624Z,100413.88
2023-03-27T00:15:15.901Z,100409.66
2023-03-27T00:17:46.733Z,100414.16
2023-03-27T00:20:15.674Z,100429.47
2023-03-27T00:22:45.147Z,100432.47
2023-03-27T00:25:13.208Z,100435.66
2023-03-27T00:27:41.884Z,100434.97
2023-03-27T00:30:11.401Z,100431.47
2023-03-27T00:32:39.435Z,100432.75
2023-03-27T00:35:09.396Z,100430.25
2023-03-27T00:37:37.736Z,100437.13
2023-03-27T00:40:09.390Z,100438.25
2023-03-27T00:42:38.153Z,100428.97
2023-03-27T00:45:07.162Z,100428.81
2023-03-27T00:47:38.745Z,100431.78
2023-03-27T00:50:11.648Z,100430.38
2023-03-27T00:52:41.889Z,100432.34
2023-03-27T00:55:15.888Z,100434.59
2023-03-27T00:57:45.911Z,100435.84
2023-03-27T01:00:17.108Z,100433.06
2023-03-27T01:02:49.647Z,100432.78
2023-03-27T01:05:20.134Z,100436.16
2023-03-27T01:07:59.963Z,100429.53
2023-03-27T01:10:42.053Z,100426.97
2023-03-27T01:13:22.800Z,100436.53
2023-03-27T01:15:58.712Z,100431.19
2023-03-27T01:18:40.026Z,100436.84
2023-03-27T01:21:38.119Z,100432.88
2023-03-27T01:24:52.977Z,100436.94
2023-03-27T01:27:37.966Z,100431.59
2023-03-27T01:30:15.948Z,100424.16
2023-03-27T01:33:20.193Z,100423.59
2023-03-27T01:36:27.507Z,100420.78
2023-03-27T01:39:32.892Z,100414.03
2023-03-27T01:42:06.953Z,100417.16
2023-03-27T01:44:45.496Z,100418.28
2023-03-27T01:47:23.287Z,100426.59
2023-03-27T01:49:55.042Z,100434.41
2023-03-27T01:52:28.468Z,100427.25
2023-03-27T01:55:05.125Z,100442.25
2023-03-27T01:57:37.409Z,100435.38
2023-03-27T02:00:22.656Z,100437.91
2023-03-27T02:02:56.039Z,100426.94
2023-03-27T02:05:31.752Z,100423.59
2023-03-27T02:08:06.141Z,100431.19
2023-03-27T02:10:40.804Z,100428.81
2023-03-27T02:13:13.797Z,100424.19
2023-03-27T02:15:44.518Z,100427.41
2023-03-27T02:18:19.201Z,100430.09
2023-03-27T02:20:47.481Z,100424.03
2023-03-27T02:23:15.589Z,100418.00
2023-03-27T02:25:45.630Z,100424.75
2023-03-27T02:28:35.201Z,100433.19
2023-03-27T02:31:31.872Z,100435.28
2023-03-27T02:34:31.998Z,100433.03
2023-03-27T02:37:06.333Z,100429.41
2023-03-27T02:39:42.691Z,100441.72
2023-03-27T02:42:18.897Z,100443.97
2023-03-27T02:44:52.520Z,100440.50
2023-03-27T02:47:27.773Z,100434.59
2023-03-27T02:50:01.930Z,100439.94
2023-03-27T02:52:34.285Z,100438.69
2023-03-27T02:55:07.432Z,100445.69
2023-03-27T02:57:40.195Z,100450.06
2023-03-27T03:00:18.608Z,100441.88
2023-03-27T03:02:49.449Z,100441.44
2023-03-27T03:05:22.306Z,100447.94
2023-03-27T03:07:51.177Z,100439.66
2023-03-27T03:10:19.153Z,100440.50
2023-03-27T03:12:48.738Z,100429.97
2023-03-27T03:15:18.665Z,100437.13
2023-03-27T03:17:46.899Z,100443.44
2023-03-27T03:20:16.759Z,100429.38
2023-03-27T03:22:44.800Z,100440.63
2023-03-27T03:25:12.799Z,100449.19
2023-03-27T03:27:41.416Z,100448.63
2023-03-27T03:30:16.472Z,100449.75
2023-03-27T03:32:45.082Z,100446.09
2023-03-27T03:35:13.911Z,100451.88
2023-03-27T03:37:41.885Z,100447.81
2023-03-27T03:40:11.992Z,100452.59
2023-03-27T03:42:45.969Z,100450.47
2023-03-27T03:45:16.018Z,100468.53
2023-03-27T03:47:44.731Z,100451.53
2023-03-27T03:50:13.670Z,100464.16
2023-03-27T03:52:42.194Z,100455.84
2023-03-27T03:55:11.896Z,100459.53
2023-03-27T03:57:40.876Z,100470.25
2023-03-27T04:00:12.231Z,100471.06
2023-03-27T04:02:43.682Z,100467.97
2023-03-27T04:05:12.700Z,100476.94
2023-03-27T04:07:41.305Z,100473.31
2023-03-27T04:10:10.886Z,100476.41
2023-03-27T04:12:38.933Z,100475.97
2023-03-27T04:15:09.320Z,100477.28
2023-03-27T04:17:38.437Z,100486.13
2023-03-27T04:20:09.144Z,100491.59
2023-03-27T04:22:38.308Z,100485.44
2023-03-27T04:25:07.921Z,100489.38
2023-03-27T04:27:36.806Z,100483.50
2023-03-27T04:30:08.719Z,100487.28
2023-03-27T04:32:36.877Z,100490.06
2023-03-27T04:35:05.123Z,100498.63
2023-03-27T04:37:34.498Z,100490.53
2023-03-27T04:40:05.244Z,100498.13
2023-03-27T04:42:33.440Z,100499.38
2023-03-27T04:45:01.602Z,100497.56
2023-03-27T04:47:29.581Z,100499.81
2023-03-27T04:49:59.019Z,100503.75
2023-03-27T04:52:29.783Z,100503.31
2023-03-27T04:54:59.622Z,100501.50
2023-03-27T04:57:28.762Z,100506.28
2023-03-27T04:59:57.302Z,100504.88
2023-03-27T05:02:26.531Z,100500.41
2023-03-27T05:04:58.723Z,100504.34
2023-03-27T05:07:28.414Z,100509.00
2023-03-27T05:09:57.767Z,100513.91
2023-03-27T05:12:28.057Z,100511.09
2023-03-27T05:14:56.573Z,100513.50
2023-03-27T05:17:25.950Z,100517.13
2023-03-27T05:19:56.038Z,100515.81
2023-03-27T05:22:24.001Z,100508.50
2023-03-27T05:24:51.968Z,100520.59
2023-03-27T05:27:20.455Z,100517.22
2023-03-27T05:29:50.276Z,100510.47
2023-03-27T05:32:18.241Z,100516.59
2023-03-27T05:34:46.228Z,100509.03
2023-03-27T05:37:14.218Z,100513.25
2023-03-27T05:39:42.136Z,100504.13
2023-03-27T05:42:10.099Z,100508.19
2023-03-27T05:44:38.084Z,100513.97
2023-03-27T05:47:07.612Z,100507.28
2023-03-27T05:49:35.980Z,100509.09
2023-03-27T05:52:04.464Z,100520.50
2023-03-27T05:54:32.404Z,100524.13
2023-03-27T05:57:00.418Z,100528.63
2023-03-27T05:59:28.416Z,100536.38
2023-03-27T06:01:58.557Z,100535.94
2023-03-27T06:04:28.597Z,100541.41
2023-03-27T06:06:56.654Z,100534.06
2023-03-27T06:09:25.409Z,100531.59
2023-03-27T06:11:53.574Z,100544.47
2023-03-27T06:14:21.585Z,100540.56
2023-03-27T06:16:49.714Z,100540.31
2023-03-27T06:19:18.107Z,100542.28
2023-03-27T06:21:47.673Z,100544.56
2023-03-27T06:24:15.644Z,100543.13
2023-03-27T06:26:43.683Z,100542.00
2023-03-27T06:29:11.696Z,100545.41
2023-03-27T06:31:39.743Z,100546.09
2023-03-27T06:34:08.661Z,100553.22
2023-03-27T06:36:36.656Z,100547.06
2023-03-27T06:39:06.612Z,100550.72
2023-03-27T06:41:34.596Z,100554.69
2023-03-27T06:44:02.779Z,100548.53
2023-03-27T06:46:42.718Z,100551.47
2023-03-27T06:49:13.282Z,100544.03
2023-03-27T06:51:41.306Z,100547.41
2023-03-27T06:54:12.384Z,100552.03
2023-03-27T06:56:40.374Z,100553.19
2023-03-27T06:59:09.049Z,100555.56
2023-03-27T07:01:37.364Z,100555.16
2023-03-27T07:04:06.796Z,100554.34
2023-03-27T07:06:34.802Z,100549.47
2023-03-27T07:09:02.757Z,100543.66
2023-03-27T07:11:32.332Z,100543.13
2023-03-27T07:14:01.350Z,100554.25
2023-03-27T07:16:29.524Z,100558.59
2023-03-27T07:19:00.887Z,100550.03
2023-03-27T07:21:30.003Z,100553.53
2023-03-27T07:23:58.111Z,100552.25
2023-03-27T07:26:26.077Z,100553.56
2023-03-27T07:28:55.464Z,100553.22
2023-03-27T07:33:54.613Z,100551.81
2023-03-27T07:36:23.182Z,100549.19
2023-03-27T07:38:51.265Z,100551.63
2023-03-27T07:41:19.667Z,100551.50
2023-03-27T07:43:48.868Z,100557.28
2023-03-27T07:46:18.285Z,100560.47
2023-03-27T07:48:46.295Z,100567.97
2023-03-27T07:51:14.520Z,100564.59
2023-03-27T07:53:43.601Z,100558.75
2023-03-27T07:56:12.131Z,100568.84
2023-03-27T07:58:40.572Z,100569.88
2023-03-27T08:01:08.752Z,100573.53
2023-03-27T08:03:39.185Z,100584.34
2023-03-27T08:06:08.225Z,100574.97
2023-03-27T08:08:36.770Z,100576.47
2023-03-27T08:11:06.257Z,100587.22
2023-03-27T08:13:36.315Z,100580.75
2023-03-27T08:16:06.501Z,100585.22
2023-03-27T08:18:35.086Z,100577.31
2023-03-27T08:21:06.763Z,100584.81
2023-03-27T08:23:34.825Z,100578.22
2023-03-27T08:26:03.847Z,100583.81
2023-03-27T08:28:33.067Z,100590.63
2023-03-27T08:31:02.885Z,100579.31
2023-03-27T08:33:31.274Z,100588.22
2023-03-27T08:35:59.571Z,100591.59
2023-03-27T08:38:33.389Z,100585.75
2023-03-27T08:41:03.819Z,100587.38
2023-03-27T08:43:41.423Z,100583.81
2023-03-27T08:46:17.979Z,100589.53
2023-03-27T08:48:53.523Z,100587.56
2023-03-27T08:51:27.444Z,100584.28
2023-03-27T08:54:03.547Z,100580.22
2023-03-27T08:56:31.649Z,100587.75
2023-03-27T08:58:59.659Z,100585.31
2023-03-27T09:01:33.618Z,100580.97
2023-03-27T09:04:10.453Z,100584.94
2023-03-27T09:06:48.284Z,100581.25
2023-03-27T09:09:31.153Z,100580.41
2023-03-27T09:12:12.442Z,100578.63
2023-03-27T09:14:44.178Z,100574.47
2023-03-27T09:17:18.233Z,100572.66
2023-03-27T09:19:51.768Z,100571.34
2023-03-27T09:22:23.904Z,100569.66
2023-03-27T09:24:56.495Z,100567.66
2023-03-27T09:27:32.559Z,100571.50
2023-03-27T09:30:16.260Z,100572.84
2023-03-27T09:32:44.378Z,100572.22
2023-03-27T09:35:15.422Z,100580.44
2023-03-27T09:37:43.822Z,100573.34
2023-03-27T09:40:23.448Z,100563.94
2023-03-27T09:42:54.686Z,100566.63
2023-03-27T09:45:23.142Z,100564.22
2023-03-27T09:47:59.760Z,100564.78
2023-03-27T09:50:33.759Z,100565.78
2023-03-27T09:53:09.676Z,100569.69
2023-03-27T09:55:50.658Z,100563.25
2023-03-27T09:58:29.601Z,100570.66
2023-03-27T10:01:09.788Z,100571.00
2023-03-27T10:03:40.558Z,100570.38
2023-03-27T10:06:10.840Z,100569.31
2023-03-27T10:08:42.109Z,100574.47
2023-03-27T10:11:17.564Z,100585.69
2023-03-27T10:13:48.079Z,100586.47
2023-03-27T10:16:18.057Z,100587.38
2023-03-27T10:18:48.785Z,100579.34
2023-03-27T10:21:25.379Z,100569.50
2023-03-27T10:24:01.662Z,100580.66
2023-03-27T10:26:34.876Z,100583.28
2023-03-27T10:29:19.837Z,100581.34
2023-03-27T10:31:52.753Z,100581.00
2023-03-27T10:34:33.640Z,100578.53
2023-03-27T10:37:03.344Z,100577.91
2023-03-27T10:39:36.482Z,100575.38
2023-03-27T10:42:09.240Z,100577.41
2023-03-27T10:44:38.819Z,100561.88
2023-03-27T10:47:16.262Z,100557.19
2023-03-27T10:49:48.421Z,100566.31
2023-03-27T10:52:24.321Z,100558.69
2023-03-27T10:55:06.918Z,100565.19
2023-03-27T10:57:38.111Z,100560.44
2023-03-27T11:00:13.917Z,100564.97
2023-03-27T11:02:47.847Z,100560.63
2023-03-27T11:05:19.461Z,100560.44
2023-03-27T11:07:52.431Z,100564.53
2023-03-27T11:10:24.937Z,100563.53
2023-03-27T11:12:57.697Z,100558.63
2023-03-27T11:15:30.145Z,100568.47
2023-03-27T11:18:04.152Z,100561.63
2023-03-27T11:20:37.565Z,100555.84
2023-03-27T11:23:12.228Z,100557.31
2023-03-27T11:25:44.882Z,100554.56
2023-03-27T11:28:23.833Z,100562.97
2023-03-27T11:30:56.957Z,100559.91
2023-03-27T11:33:36.371Z,100557.78
2023-03-27T11:36:17.736Z,100566.94
2023-03-27T11:38:51.461Z,100564.59
2023-03-27T11:41:19.517Z,100573.88
2023-03-27T11:43:48.986Z,100580.94
2023-03-27T11:46:45.041Z,100583.28
2023-03-27T11:49:24.165Z,100580.75
2023-03-27T11:52:03.015Z,100580.66
2023-03-27T11:54:54.943Z,100575.16
2023-03-27T11:57:25.867Z,100574.03
2023-03-27T12:00:12.930Z,100575.72
2023-03-27T12:03:09.053Z,100576.06
2023-03-27T12:05:47.342Z,100571.34
2023-03-27T12:08:27.456Z,100572.84
2023-03-27T12:10:59.097Z,100566.63
2023-03-27T12:14:08.942Z,100571.78
2023-03-27T12:16:57.686Z,100576.81
2023-03-27T12:19:41.938Z,100584.03
2023-03-27T12:22:24.414Z,100592.22
2023-03-27T12:25:16.980Z,100580.94
2023-03-27T12:27:58.005Z,100590.22
2023-03-27T12:30:39.274Z,100609.31
2023-03-27T12:33:27.947Z,100599.84
2023-03-27T12:35:59.214Z,100602.84
2023-03-27T12:38:30.468Z,100603.72
2023-03-27T12:41:05.413Z,100605.72
2023-03-27T12:43:39.863Z,100600.50
2023-03-27T12:46:11.489Z,100600.53
2023-03-27T12:48:57.874Z,100598.00
2023-03-27T12:51:38.938Z,100598.13
2023-03-27T12:54:27.636Z,100592.94
2023-03-27T12:57:05.387Z,100591.25
2023-03-27T12:59:37.362Z,100581.53
2023-03-27T13:02:41.273Z,100572.47
2023-03-27T13:05:48.061Z,100564.44
2023-03-27T13:08:46.826Z,100559.03
2023-03-27T13:11:27.509Z,100559.81
2023-03-27T13:14:31.647Z,100552.25
2023-03-27T13:17:34.123Z,100551.88
2023-03-27T13:20:16.596Z,100550.41
2023-03-27T13:22:58.666Z,100550.38
2023-03-27T13:25:33.713Z,100544.28
2023-03-27T13:28:22.804Z,100537.59
2023-03-27T13:30:52.900Z,100540.16
2023-03-27T13:33:28.117Z,100540.47
2023-03-27T13:36:17.636Z,100541.19
2023-03-27T13:39:15.089Z,100531.81
2023-03-27T13:42:01.664Z,100524.22
2023-03-27T13:44:41.125Z,100528.56
2023-03-27T13:47:30.284Z,100534.91
2023-03-27T13:50:19.607Z,100538.19
2023-03-27T13:53:23.098Z,100536.50
2023-03-27T13:56:05.344Z,100531.81
2023-03-27T13:58:58.889Z,100523.72
2023-03-27T14:01:38.142Z,100531.44
2023-03-27T14:04:27.609Z,100535.00
2023-03-27T14:07:37.485Z,100525.84
2023-03-27T14:10:15.949Z,100530.75
2023-03-27T14:12:58.037Z,100526.78
2023-03-27T14:15:51.280Z,100550.84
2023-03-27T14:18:44.231Z,100541.41
2023-03-27T14:21:24.539Z,100556.84
2023-03-27T14:24:08.856Z,100560.56
2023-03-27T14:26:37.909Z,100553.69
2023-03-27T14:29:08.664Z,100550.28
2023-03-27T14:31:38.800Z,100562.56
2023-03-27T14:34:18.765Z,100561.16
2023-03-27T14:36:49.838Z,100564.47
2023-03-27T14:39:20.680Z,100562.97
2023-03-27T14:41:50.713Z,100567.47
2023-03-27T14:44:21.900Z,100563.88
2023-03-27T14:46:51.020Z,100564.56
2023-03-27T14:49:24.779Z,100569.41
2023-03-27T14:51:55.260Z,100564.16
2023-03-27T14:54:28.859Z,100577.31
2023-03-27T14:57:00.387Z,100572.19
2023-03-27T14:59:34.927Z,100573.06
2023-03-27T15:02:05.685Z,100569.72
2023-03-27T15:04:38.359Z,100573.09
2023-03-27T15:07:14.396Z,100573.34
2023-03-27T15:09:42.870Z,100572.69
2023-03-27T15:12:12.325Z,100568.31
2023-03-27T15:14:42.490Z,100564.97
2023-03-27T15:17:15.994Z,100562.28
2023-03-27T15:19:49.176Z,100569.03
2023-03-27T15:22:23.549Z,100560.59
2023-03-27T15:24:57.720Z,100557.19
2023-03-27T15:27:30.689Z,100558.19
2023-03-27T15:30:03.876Z,100554.84
2023-03-27T15:32:42.459Z,100550.16
2023-03-27T15:35:16.218Z,100544.41
2023-03-27T15:37:45.343Z,100553.19
2023-03-27T15:40:36.818Z,100549.63
2023-03-27T15:43:07.915Z,100551.66
2023-03-27T15:45:39.925Z,100550.31
2023-03-27T15:48:19.034Z,100546.44
2023-03-27T15:50:57.813Z,100542.06
2023-03-27T15:53:37.152Z,100544.97
2023-03-27T15:56:08.527Z,100541.38
2023-03-27T15:58:47.337Z,100549.84
2023-03-27T16:01:20.840Z,100535.69
2023-03-27T16:03:51.318Z,100536.00
2023-03-27T16:06:30.824Z,100535.97
2023-03-27T16:08:59.759Z,100532.66
2023-03-27T16:11:37.666Z,100530.81
2023-03-27T16:14:05.820Z,100536.63
2023-03-27T16:16:35.845Z,100537.97
2023-03-27T16:19:12.045Z,100535.63
2023-03-27T16:21:54.025Z,100534.41
2023-03-27T16:24:22.083Z,100530.44
2023-03-27T16:26:52.172Z,100527.03
2023-03-27T16:29:21.328Z,100503.63
2023-03-27T16:31:50.705Z,100526.44
2023-03-27T16:34:21.994Z,100523.03
2023-03-27T16:36:51.748Z,100528.78
2023-03-27T16:39:19.764Z,100524.75
2023-03-27T16:41:47.768Z,100533.19
2023-03-27T16:44:15.836Z,100537.59
2023-03-27T16:46:43.851Z,100521.97
2023-03-27T16:49:14.325Z,100524.59
2023-03-27T16:51:43.547Z,100501.06
2023-03-27T16:54:11.579Z,100511.50
2023-03-27T16:56:39.642Z,100514.00
2023-03-27T16:59:07.605Z,100509.28
2023-03-27T17:01:35.912Z,100504.44
2023-03-27T17:04:04.031Z,100507.19
2023-03-27T17:06:33.411Z,100504.00
2023-03-27T17:09:01.343Z,100503.16
2023-03-27T17:11:29.407Z,100507.75
2023-03-27T17:13:58.255Z,100510.09
2023-03-27T17:16:26.305Z,100508.06
2023-03-27T17:18:55.770Z,100508.41
2023-03-27T17:21:24.278Z,100515.81
2023-03-27T17:23:54.498Z,100516.31
2023-03-27T17:26:23.320Z,100511.63
2023-03-27T17:28:51.667Z,100503.88
2023-03-27T17:31:20.082Z,100499.16
2023-03-27T17:33:48.115Z,100496.47
2023-03-27T17:36:23.870Z,100488.88
2023-03-27T17:39:02.711Z,100497.31
2023-03-27T17:41:30.671Z,100494.97
2023-03-27T17:43:58.631Z,100497.97
2023-03-27T17:46:26.702Z,100500.31
2023-03-27T17:48:54.747Z,100499.44
2023-03-27T17:51:22.883Z,100507.84
2023-03-27T17:53:50.833Z,100503.31
2023-03-27T17:56:20.216Z,100508.13
2023-03-27T17:58:50.198Z,100506.78
2023-03-27T18:01:21.631Z,100508.91
2023-03-27T18:03:50.222Z,100506.56
2023-03-27T18:06:19.469Z,100513.41
2023-03-27T18:08:48.055Z,100516.53
2023-03-27T18:11:17.411Z,100514.28
2023-03-27T18:13:51.424Z,100510.41
2023-03-27T18:16:20.128Z,100511.84
2023-03-27T18:18:48.228Z,100514.63
2023-03-27T18:21:16.644Z,100514.97
2023-03-27T18:23:45.924Z,100513.16
2023-03-27T18:26:15.840Z,100520.28
2023-03-27T18:28:44.480Z,100517.53
2023-03-27T18:31:15.316Z,100515.81
2023-03-27T18:33:43.295Z,100522.84
2023-03-27T18:36:12.215Z,100520.13
2023-03-27T18:38:41.800Z,100520.28
2023-03-27T18:41:10.221Z,100527.28
2023-03-27T18:43:38.560Z,100525.34
2023-03-27T18:46:08.463Z,100525.94
2023-03-27T18:48:37.940Z,100534.41
2023-03-27T18:51:07.229Z,100522.47
2023-03-27T18:53:35.564Z,100531.19
2023-03-27T18:56:03.973Z,100529.13
2023-03-27T18:58:32.522Z,100530.19
2023-03-27T19:01:00.991Z,100530.47
2023-03-27T19:03:34.928Z,100525.41
2023-03-27T19:06:07.667Z,100527.53
2023-03-27T19:08:37.555Z,100520.53
2023-03-27T19:11:06.093Z,100522.16
2023-03-27T19:13:34.099Z,100527.03
2023-03-27T19:16:02.242Z,100517.81
2023-03-27T19:18:42.457Z,100523.59
2023-03-27T19:21:11.802Z,100529.38
2023-03-27T19:23:39.808Z,100522.53
2023-03-27T19:26:08.855Z,100518.13
2023-03-27T19:28:37.182Z,100519.09
2023-03-27T19:31:06.644Z,100522.19
2023-03-27T19:33:34.762Z,100524.59
2023-03-27T19:36:02.810Z,100525.72
2023-03-27T19:38:32.586Z,100530.00
2023-03-27T19:41:00.641Z,100537.88
2023-03-27T19:43:28.745Z,100535.19
2023-03-27T19:46:14.118Z,100532.66
2023-03-27T19:48:43.814Z,100541.66
2023-03-27T19:51:11.800Z,100539.00
2023-03-27T19:53:42.077Z,100540.53
2023-03-27T19:56:10.406Z,100546.03
2023-03-27T19:58:38.330Z,100538.69
2023-03-27T20:01:07.035Z,100544.28
2023-03-27T20:03:38.558Z,100548.50
2023-03-27T20:06:12.282Z,100548.78
2023-03-27T20:08:43.811Z,100551.41
2023-03-27T20:11:12.116Z,100556.50
2023-03-27T20:13:53.222Z,100547.78
2023-03-27T20:16:26.143Z,100553.53
2023-03-27T20:19:03.454Z,100550.16
2023-03-27T20:21:33.853Z,100555.31
2023-03-27T20:24:03.559Z,100555.13
2023-03-27T20:26:39.015Z,100553.91
2023-03-27T20:29:08.237Z,100555.13
2023-03-27T20:31:36.731Z,100555.84
2023-03-27T20:34:06.639Z,100555.88
2023-03-27T20:36:35.099Z,100557.94
2023-03-27T20:39:07.446Z,100557.69
2023-03-27T20:41:38.976Z,100554.44
2023-03-27T20:44:15.876Z,100548.75
2023-03-27T20:46:47.498Z,100551.81
2023-03-27T20:49:37.679Z,100553.63
2023-03-27T20:52:09.828Z,100557.00
2023-03-27T20:54:39.343Z,100562.34
2023-03-27T20:57:07.627Z,100551.28
2023-03-27T20:59:35.925Z,100555.22
2023-03-27T21:02:04.545Z,100556.91
2023-03-27T21:04:32.629Z,100558.34
2023-03-27T21:07:00.880Z,100560.16
2023-03-27T21:09:28.936Z,100561.16
2023-03-27T21:11:58.383Z,100550.03
2023-03-27T21:14:26.338Z,100563.56
2023-03-27T21:16:54.635Z,100563.50
2023-03-27T21:19:22.922Z,100552.56
2023-03-27T21:21:51.201Z,100554.22
2023-03-27T21:24:19.578Z,100550.56
2023-03-27T21:26:47.647Z,100556.69
2023-03-27T21:29:17.077Z,100552.78
2023-03-27T21:31:45.117Z,100552.53
2023-03-27T21:34:13.133Z,100556.19
2023-03-27T21:36:41.301Z,100556.81
2023-03-27T21:39:09.703Z,100556.69
2023-03-27T21:41:37.850Z,100564.94
2023-03-27T21:44:06.280Z,100561.22
2023-03-27T21:46:35.781Z,100565.72
2023-03-27T21:49:03.914Z,100561.88
2023-03-27T21:51:31.877Z,100570.59
2023-03-27T21:53:59.952Z,100571.78
2023-03-27T21:56:27.932Z,100566.25
2023-03-27T21:58:57.566Z,100562.28
2023-03-27T22:01:26.027Z,100561.63
2023-03-27T22:03:59.568Z,100562.94
2023-03-27T22:06:28.909Z,100561.75
2023-03-27T22:08:57.093Z,100565.66
2023-03-27T22:11:25.104Z,100553.56
2023-03-27T22:13:53.280Z,100556.22
2023-03-27T22:16:21.495Z,100557.19
2023-03-27T22:18:49.671Z,100561.22
2023-03-27T22:21:22.112Z,100559.56
2023-03-27T22:23:51.143Z,100559.97
2023-03-27T22:26:20.053Z,100546.47
2023-03-27T22:28:48.094Z,100549.56
2023-03-27T22:31:16.265Z,100552.47
2023-03-27T22:33:44.289Z,100541.06
2023-03-27T22:36:13.636Z,100538.03
2023-03-27T22:38:43.507Z,100546.16
2023-03-27T22:41:13.868Z,100550.03
2023-03-27T22:43:42.326Z,100544.31
2023-03-27T22:46:12.365Z,100547.59
